sensor_id;sensor_type;location;lat;lon;timestamp;pressure;altitude;pressure_sealevel;temperature;humidity
52735;BME280;38631;47.572;10.704;2023-09-30T00:02:21;93421.69;;;15.90;100.00
52735;BME280;38631;47.572;10.704;2023-09-30T00:04:47;93413.66;;;15.90;100.00
52735;BME280;38631;47.572;10.704;2023-09-30T00:07:12;93411.63;;;15.87;100.00
52735;BME280;38631;47.572;10.704;2023-09-30T00:09:38;93405.00;;;15.84;100.00
52735;BME280;38631;47.572;10.704;2023-09-30T00:12:03;93424.84;;;15.83;100.00
52735;BME280;38631;47.572;10.704;2023-09-30T00:14:29;93422.16;;;15.74;100.00
52735;BME280;38631;47.572;10.704;2023-09-30T00:16:55;93414.28;;;15.69;100.00
52735;BME280;38631;47.572;10.704;2023-09-30T00:19:21;93419.50;;;15.83;100.00
52735;BME280;38631;47.572;10.704;2023-09-30T00:21:48;93415.22;;;15.82;100.00
52735;BME280;38631;47.572;10.704;2023-09-30T00:24:13;93412.88;;;15.81;100.00
52735;BME280;38631;47.572;10.704;2023-09-30T00:26:39;93411.00;;;15.72;100.00
52735;BME280;38631;47.572;10.704;2023-09-30T00:29:04;93411.28;;;15.80;100.00
52735;BME280;38631;47.572;10.704;2023-09-30T00:31:31;93419.00;;;15.90;100.00
52735;BME280;38631;47.572;10.704;2023-09-30T00:33:57;93419.50;;;15.83;100.00
52735;BME280;38631;47.572;10.704;2023-09-30T00:36:22;93417.91;;;15.73;100.00
52735;BME280;38631;47.572;10.704;2023-09-30T00:38:48;93414.59;;;15.68;100.00
52735;BME280;38631;47.572;10.704;2023-09-30T00:41:13;93419.19;;;15.76;100.00
52735;BME280;38631;47.572;10.704;2023-09-30T00:43:39;93420.25;;;15.66;100.00
52735;BME280;38631;47.572;10.704;2023-09-30T00:48:54;93431.56;;;15.54;100.00
52735;BME280;38631;47.572;10.704;2023-09-30T00:51:21;93435.22;;;15.59;100.00
52735;BME280;38631;47.572;10.704;2023-09-30T00:53:47;93431.59;;;15.63;100.00
52735;BME280;38631;47.572;10.704;2023-09-30T00:56:13;93433.63;;;15.66;100.00
52735;BME280;38631;47.572;10.704;2023-09-30T00:58:39;93445.28;;;15.62;100.00
52735;BME280;38631;47.572;10.704;2023-09-30T01:01:04;93455.53;;;15.68;100.00
52735;BME280;38631;47.572;10.704;2023-09-30T01:03:30;93449.56;;;15.71;100.00
52735;BME280;38631;47.572;10.704;2023-09-30T01:05:55;93449.09;;;15.69;100.00
52735;BME280;38631;47.572;10.704;2023-09-30T01:08:21;93445.59;;;15.69;100.00
52735;BME280;38631;47.572;10.704;2023-09-30T01:10:47;93436.31;;;15.66;100.00
52735;BME280;38631;47.572;10.704;2023-09-30T01:13:13;93439.44;;;15.51;100.00
52735;BME280;38631;47.572;10.704;2023-09-30T01:15:38;93428.91;;;15.54;100.00
52735;BME280;38631;47.572;10.704;2023-09-30T01:18:04;93436.47;;;15.52;100.00
52735;BME280;38631;47.572;10.704;2023-09-30T01:20:29;93427.59;;;15.26;100.00
52735;BME280;38631;47.572;10.704;2023-09-30T01:22:57;93432.66;;;15.27;100.00
52735;BME280;38631;47.572;10.704;2023-09-30T01:25:23;93430.94;;;15.40;100.00
52735;BME280;38631;47.572;10.704;2023-09-30T01:27:49;93427.44;;;15.40;100.00
52735;BME280;38631;47.572;10.704;2023-09-30T01:30:17;93424.13;;;15.25;100.00
52735;BME280;38631;47.572;10.704;2023-09-30T01:32:43;93416.59;;;15.36;100.00
52735;BME280;38631;47.572;10.704;2023-09-30T01:35:09;93418.81;;;15.43;100.00
52735;BME280;38631;47.572;10.704;2023-09-30T01:37:35;93418.34;;;15.41;100.00
52735;BME280;38631;47.572;10.704;2023-09-30T01:40:00;93416.75;;;15.40;100.00
52735;BME280;38631;47.572;10.704;2023-09-30T01:42:25;93408.09;;;15.25;100.00
52735;BME280;38631;47.572;10.704;2023-09-30T01:44:51;93402.88;;;15.29;100.00
52735;BME280;38631;47.572;10.704;2023-09-30T01:47:16;93401.16;;;15.33;100.00
52735;BME280;38631;47.572;10.704;2023-09-30T01:49:42;93400.38;;;15.41;100.00
52735;BME280;38631;47.572;10.704;2023-09-30T01:52:07;93398.97;;;15.35;100.00
52735;BME280;38631;47.572;10.704;2023-09-30T01:54:33;93412.50;;;15.30;100.00
52735;BME280;38631;47.572;10.704;2023-09-30T01:56:59;93403.81;;;15.16;100.00
52735;BME280;38631;47.572;10.704;2023-09-30T01:59:24;93409.00;;;15.29;100.00
52735;BME280;38631;47.572;10.704;2023-09-30T02:01:50;93401.28;;;15.19;100.00
52735;BME280;38631;47.572;10.704;2023-09-30T02:04:15;93412.97;;;15.32;100.00
52735;BME280;38631;47.572;10.704;2023-09-30T02:06:43;93385.56;;;15.26;100.00
52735;BME280;38631;47.572;10.704;2023-09-30T02:09:09;93386.81;;;15.29;100.00
52735;BME280;38631;47.572;10.704;2023-09-30T02:11:35;93389.94;;;15.22;100.00
52735;BME280;38631;47.572;10.704;2023-09-30T02:14:02;93392.63;;;15.22;100.00
52735;BME280;38631;47.572;10.704;2023-09-30T02:16:27;93396.91;;;15.23;100.00
52735;BME280;38631;47.572;10.704;2023-09-30T02:18:53;93393.41;;;15.14;100.00
52735;BME280;38631;47.572;10.704;2023-09-30T02:21:19;93405.06;;;15.27;100.00
52735;BME280;38631;47.572;10.704;2023-09-30T02:23:45;93404.78;;;15.28;100.00
52735;BME280;38631;47.572;10.704;2023-09-30T02:26:16;93389.16;;;15.22;100.00
52735;BME280;38631;47.572;10.704;2023-09-30T02:28:42;93402.25;;;15.23;100.00
52735;BME280;38631;47.572;10.704;2023-09-30T02:31:08;93404.63;;;15.25;100.00
52735;BME280;38631;47.572;10.704;2023-09-30T02:33:33;93404.75;;;15.20;100.00
52735;BME280;38631;47.572;10.704;2023-09-30T02:36:02;93390.75;;;15.23;100.00
52735;BME280;38631;47.572;10.704;2023-09-30T02:38:31;93389.19;;;15.30;100.00
52735;BME280;38631;47.572;10.704;2023-09-30T02:40:57;93395.31;;;15.13;100.00
52735;BME280;38631;47.572;10.704;2023-09-30T02:43:22;93396.22;;;15.09;100.00
52735;BME280;38631;47.572;10.704;2023-09-30T02:45:48;93400.34;;;15.15;100.00
52735;BME280;38631;47.572;10.704;2023-09-30T02:48:13;93395.16;;;15.10;100.00
52735;BME280;38631;47.572;10.704;2023-09-30T02:50:41;93397.50;;;15.03;100.00
52735;BME280;38631;47.572;10.704;2023-09-30T02:53:09;93395.44;;;15.00;100.00
52735;BME280;38631;47.572;10.704;2023-09-30T02:55:34;93377.66;;;14.55;100.00
52735;BME280;38631;47.572;10.704;2023-09-30T02:58:00;93381.59;;;14.58;100.00
52735;BME280;38631;47.572;10.704;2023-09-30T03:00:26;93379.16;;;14.79;100.00
52735;BME280;38631;47.572;10.704;2023-09-30T03:02:53;93383.94;;;14.99;100.00
52735;BME280;38631;47.572;10.704;2023-09-30T03:05:18;93389.75;;;15.01;100.00
52735;BME280;38631;47.572;10.704;2023-09-30T03:07:45;93380.75;;;14.80;100.00
52735;BME280;38631;47.572;10.704;2023-09-30T03:10:11;93371.41;;;14.60;100.00
52735;BME280;38631;47.572;10.704;2023-09-30T03:12:38;93382.47;;;14.84;100.00
52735;BME280;38631;47.572;10.704;2023-09-30T03:15:04;93375.56;;;14.83;100.00
52735;BME280;38631;47.572;10.704;2023-09-30T03:17:30;93390.06;;;14.91;100.00
52735;BME280;38631;47.572;10.704;2023-09-30T03:19:57;93381.06;;;14.87;100.00
52735;BME280;38631;47.572;10.704;2023-09-30T03:22:23;93384.22;;;14.89;100.00
52735;BME280;38631;47.572;10.704;2023-09-30T03:24:48;93384.50;;;14.79;100.00
52735;BME280;38631;47.572;10.704;2023-09-30T03:27:14;93392.72;;;14.91;100.00
52735;BME280;38631;47.572;10.704;2023-09-30T03:29:40;93388.19;;;15.00;100.00
52735;BME280;38631;47.572;10.704;2023-09-30T03:32:06;93394.34;;;15.01;100.00
52735;BME280;38631;47.572;10.704;2023-09-30T03:34:33;93394.56;;;14.73;100.00
52735;BME280;38631;47.572;10.704;2023-09-30T03:37:02;93394.56;;;14.73;100.00
52735;BME280;38631;47.572;10.704;2023-09-30T03:39:27;93396.47;;;14.81;100.00
52735;BME280;38631;47.572;10.704;2023-09-30T03:41:55;93398.50;;;14.84;100.00
52735;BME280;38631;47.572;10.704;2023-09-30T03:44:22;93390.78;;;14.74;100.00
52735;BME280;38631;47.572;10.704;2023-09-30T03:46:51;93395.31;;;14.65;100.00
52735;BME280;38631;47.572;10.704;2023-09-30T03:49:18;93391.38;;;14.62;100.00
52735;BME280;38631;47.572;10.704;2023-09-30T03:51:45;93385.47;;;14.52;100.00
52735;BME280;38631;47.572;10.704;2023-09-30T03:54:10;93389.03;;;14.38;100.00
52735;BME280;38631;47.572;10.704;2023-09-30T03:56:37;93384.44;;;14.30;100.00
52735;BME280;38631;47.572;10.704;2023-09-30T03:59:06;93375.97;;;14.37;100.00
52735;BME280;38631;47.572;10.704;2023-09-30T04:01:34;93381.41;;;14.54;100.00
52735;BME280;38631;47.572;10.704;2023-09-30T04:03:59;93374.50;;;14.53;100.00
52735;BME280;38631;47.572;10.704;2023-09-30T04:06:25;93375.25;;;14.45;100.00
52735;BME280;38631;47.572;10.704;2023-09-30T04:08:50;93374.78;;;14.52;100.00
52735;BME280;38631;47.572;10.704;2023-09-30T04:11:16;93380.34;;;14.55;100.00
52735;BME280;38631;47.572;10.704;2023-09-30T04:13:45;93390.28;;;14.72;100.00
52735;BME280;38631;47.572;10.704;2023-09-30T04:16:11;93387.31;;;14.65;100.00
52735;BME280;38631;47.572;10.704;2023-09-30T04:18:36;93387.56;;;14.55;100.00
52735;BME280;38631;47.572;10.704;2023-09-30T04:21:03;93391.84;;;14.64;100.00
52735;BME280;38631;47.572;10.704;2023-09-30T04:23:29;93389.25;;;14.51;100.00
52735;BME280;38631;47.572;10.704;2023-09-30T04:25:54;93386.88;;;14.18;100.00
52735;BME280;38631;47.572;10.704;2023-09-30T04:28:20;93386.75;;;14.23;100.00
52735;BME280;38631;47.572;10.704;2023-09-30T04:30:47;93397.06;;;14.47;100.00
52735;BME280;38631;47.572;10.704;2023-09-30T04:33:12;93395.75;;;14.58;100.00
52735;BME280;38631;47.572;10.704;2023-09-30T04:35:38;93404.56;;;14.59;100.00
52735;BME280;38631;47.572;10.704;2023-09-30T04:38:04;93407.72;;;14.61;100.00
52735;BME280;38631;47.572;10.704;2023-09-30T04:40:30;93407.75;;;14.69;100.00
52735;BME280;38631;47.572;10.704;2023-09-30T04:42:55;93412.78;;;14.71;100.00
52735;BME280;38631;47.572;10.704;2023-09-30T04:45:24;93420.31;;;14.69;100.00
52735;BME280;38631;47.572;10.704;2023-09-30T04:47:50;93414.97;;;14.69;100.00
52735;BME280;38631;47.572;10.704;2023-09-30T04:50:16;93421.09;;;14.69;100.00
52735;BME280;38631;47.572;10.704;2023-09-30T04:52:42;93424.38;;;14.58;100.00
52735;BME280;38631;47.572;10.704;2023-09-30T04:55:07;93423.28;;;14.59;100.00
52735;BME280;38631;47.572;10.704;2023-09-30T04:57:33;93437.50;;;14.45;100.00
52735;BME280;38631;47.572;10.704;2023-09-30T04:59:59;93421.22;;;14.33;100.00
52735;BME280;38631;47.572;10.704;2023-09-30T05:02:26;93425.34;;;14.39;100.00
52735;BME280;38631;47.572;10.704;2023-09-30T05:04:51;93413.22;;;14.33;100.00
52735;BME280;38631;47.572;10.704;2023-09-30T05:07:17;93418.31;;;14.21;100.00
52735;BME280;38631;47.572;10.704;2023-09-30T05:09:43;93425.19;;;14.44;100.00
52735;BME280;38631;47.572;10.704;2023-09-30T05:12:08;93422.50;;;14.58;100.00
52735;BME280;38631;47.572;10.704;2023-09-30T05:14:35;93419.81;;;14.58;100.00
52735;BME280;38631;47.572;10.704;2023-09-30T05:17:02;93425.19;;;14.44;100.00
52735;BME280;38631;47.572;10.704;2023-09-30T05:19:29;93417.00;;;14.32;100.00
52735;BME280;38631;47.572;10.704;2023-09-30T05:21:57;93419.28;;;14.47;100.00
52735;BME280;38631;47.572;10.704;2023-09-30T05:24:22;93418.44;;;14.47;100.00
52735;BME280;38631;47.572;10.704;2023-09-30T05:26:47;93409.91;;;14.36;100.00
52735;BME280;38631;47.572;10.704;2023-09-30T05:29:13;93404.28;;;14.38;100.00
52735;BME280;38631;47.572;10.704;2023-09-30T05:31:39;93411.69;;;14.41;100.00
52735;BME280;38631;47.572;10.704;2023-09-30T05:34:05;93408.16;;;14.32;100.00
52735;BME280;38631;47.572;10.704;2023-09-30T05:36:30;93415.50;;;14.48;100.00
52735;BME280;38631;47.572;10.704;2023-09-30T05:38:55;93420.72;;;14.54;100.00
52735;BME280;38631;47.572;10.704;2023-09-30T05:41:21;93422.78;;;14.57;100.00
52735;BME280;38631;47.572;10.704;2023-09-30T05:43:47;93428.75;;;14.54;100.00
52735;BME280;38631;47.572;10.704;2023-09-30T05:46:12;93430.34;;;14.55;100.00
52735;BME280;38631;47.572;10.704;2023-09-30T05:48:38;93445.28;;;14.56;100.00
52735;BME280;38631;47.572;10.704;2023-09-30T05:51:05;93438.47;;;14.50;100.00
52735;BME280;38631;47.572;10.704;2023-09-30T05:53:31;93435.31;;;14.47;100.00
52735;BME280;38631;47.572;10.704;2023-09-30T05:55:58;93436.47;;;14.55;100.00
52735;BME280;38631;47.572;10.704;2023-09-30T05:58:25;93447.81;;;14.61;100.00
52735;BME280;38631;47.572;10.704;2023-09-30T06:00:51;93439.94;;;14.56;100.00
52735;BME280;38631;47.572;10.704;2023-09-30T06:03:18;93436.25;;;14.52;100.00
52735;BME280;38631;47.572;10.704;2023-09-30T06:05:43;93455.53;;;14.62;100.00
52735;BME280;38631;47.572;10.704;2023-09-30T06:08:10;93461.53;;;14.68;100.00
52735;BME280;38631;47.572;10.704;2023-09-30T06:10:42;93456.84;;;14.51;100.00
52735;BME280;38631;47.572;10.704;2023-09-30T06:13:11;93459.22;;;14.53;100.00
52735;BME280;38631;47.572;10.704;2023-09-30T06:15:41;93448.78;;;14.42;100.00
52735;BME280;38631;47.572;10.704;2023-09-30T06:18:07;93458.34;;;14.57;100.00
52735;BME280;38631;47.572;10.704;2023-09-30T06:20:34;93453.28;;;14.56;100.00
52735;BME280;38631;47.572;10.704;2023-09-30T06:23:00;93451.72;;;14.55;100.00
52735;BME280;38631;47.572;10.704;2023-09-30T06:25:26;93467.88;;;14.50;100.00
52735;BME280;38631;47.572;10.704;2023-09-30T06:27:53;93451.38;;;14.25;100.00
52735;BME280;38631;47.572;10.704;2023-09-30T06:30:20;93457.41;;;14.39;100.00
52735;BME280;38631;47.572;10.704;2023-09-30T06:32:46;93464.28;;;14.32;100.00
52735;BME280;38631;47.572;10.704;2023-09-30T06:35:12;93467.97;;;14.44;100.00
52735;BME280;38631;47.572;10.704;2023-09-30T06:37:39;93473.66;;;14.52;100.00
52735;BME280;38631;47.572;10.704;2023-09-30T06:40:06;93474.19;;;14.54;100.00
52735;BME280;38631;47.572;10.704;2023-09-30T06:42:34;93471.91;;;14.47;100.00
52735;BME280;38631;47.572;10.704;2023-09-30T06:45:01;93473.88;;;14.55;100.00
52735;BME280;38631;47.572;10.704;2023-09-30T06:47:26;93490.94;;;14.68;100.00
52735;BME280;38631;47.572;10.704;2023-09-30T06:49:52;93473.44;;;14.62;100.00
52735;BME280;38631;47.572;10.704;2023-09-30T06:52:18;93482.13;;;14.67;100.00
52735;BME280;38631;47.572;10.704;2023-09-30T06:54:45;93479.47;;;14.67;100.00
52735;BME280;38631;47.572;10.704;2023-09-30T06:57:10;93476.91;;;14.62;100.00
52735;BME280;38631;47.572;10.704;2023-09-30T06:59:35;93484.97;;;14.71;100.00
52735;BME280;38631;47.572;10.704;2023-09-30T07:02:01;93466.88;;;14.68;100.00
52735;BME280;38631;47.572;10.704;2023-09-30T07:04:27;93479.63;;;14.71;100.00
52735;BME280;38631;47.572;10.704;2023-09-30T07:06:54;93462.44;;;14.63;100.00
52735;BME280;38631;47.572;10.704;2023-09-30T07:09:19;93488.56;;;14.66;100.00
52735;BME280;38631;47.572;10.704;2023-09-30T07:11:45;93479.41;;;14.59;100.00
52735;BME280;38631;47.572;10.704;2023-09-30T07:14:11;93484.75;;;14.59;100.00
52735;BME280;38631;47.572;10.704;2023-09-30T07:16:37;93505.38;;;14.67;100.00
52735;BME280;38631;47.572;10.704;2023-09-30T07:19:02;93497.81;;;14.60;100.00
52735;BME280;38631;47.572;10.704;2023-09-30T07:21:28;93504.13;;;14.64;100.00
52735;BME280;38631;47.572;10.704;2023-09-30T07:23:54;93512.81;;;14.70;100.00
52735;BME280;38631;47.572;10.704;2023-09-30T07:26:24;93517.06;;;14.71;100.00
52735;BME280;38631;47.572;10.704;2023-09-30T07:28:49;93499.22;;;14.58;100.00
52735;BME280;38631;47.572;10.704;2023-09-30T07:31:15;93510.06;;;14.61;100.00
52735;BME280;38631;47.572;10.704;2023-09-30T07:33:40;93522.69;;;14.69;100.00
52735;BME280;38631;47.572;10.704;2023-09-30T07:36:06;93528.66;;;14.66;100.00
52735;BME280;38631;47.572;10.704;2023-09-30T07:38:31;93521.63;;;14.71;100.00
52735;BME280;38631;47.572;10.704;2023-09-30T07:40:57;93527.13;;;14.74;100.00
52735;BME280;38631;47.572;10.704;2023-09-30T07:43:22;93523.50;;;14.70;100.00
52735;BME280;38631;47.572;10.704;2023-09-30T07:45:48;93547.94;;;14.77;100.00
52735;BME280;38631;47.572;10.704;2023-09-30T07:48:13;93544.91;;;14.70;100.00
52735;BME280;38631;47.572;10.704;2023-09-30T07:50:39;93524.72;;;14.64;100.00
52735;BME280;38631;47.572;10.704;2023-09-30T07:53:04;93527.75;;;14.71;100.00
52735;BME280;38631;47.572;10.704;2023-09-30T07:55:30;93534.91;;;14.84;100.00
52735;BME280;38631;47.572;10.704;2023-09-30T07:57:56;93523.75;;;14.82;100.00
52735;BME280;38631;47.572;10.704;2023-09-30T08:00:22;93529.53;;;14.84;100.00
52735;BME280;38631;47.572;10.704;2023-09-30T08:02:48;93547.53;;;14.93;100.00
52735;BME280;38631;47.572;10.704;2023-09-30T08:05:15;93541.84;;;14.85;100.00
52735;BME280;38631;47.572;10.704;2023-09-30T08:07:41;93545.34;;;14.95;100.00
52735;BME280;38631;47.572;10.704;2023-09-30T08:10:07;93551.03;;;15.02;100.00
52735;BME280;38631;47.572;10.704;2023-09-30T08:12:37;93541.97;;;15.11;100.00
52735;BME280;38631;47.572;10.704;2023-09-30T08:15:03;93527.28;;;15.00;100.00
52735;BME280;38631;47.572;10.704;2023-09-30T08:17:31;93544.28;;;15.04;100.00
52735;BME280;38631;47.572;10.704;2023-09-30T08:19:56;93535.97;;;15.06;100.00
52735;BME280;38631;47.572;10.704;2023-09-30T08:22:22;93542.00;;;15.20;100.00
52735;BME280;38631;47.572;10.704;2023-09-30T08:24:52;93539.16;;;15.17;100.00
52735;BME280;38631;47.572;10.704;2023-09-30T08:27:18;93540.19;;;15.07;100.00
52735;BME280;38631;47.572;10.704;2023-09-30T08:29:43;93540.19;;;15.07;100.00
52735;BME280;38631;47.572;10.704;2023-09-30T08:32:10;93537.53;;;15.07;100.00
52735;BME280;38631;47.572;10.704;2023-09-30T08:34:35;93534.41;;;15.05;100.00
52735;BME280;38631;47.572;10.704;2023-09-30T08:37:02;93534.84;;;15.07;100.00
52735;BME280;38631;47.572;10.704;2023-09-30T08:39:28;93525.25;;;15.06;100.00
52735;BME280;38631;47.572;10.704;2023-09-30T08:41:57;93525.75;;;15.08;100.00
52735;BME280;38631;47.572;10.704;2023-09-30T08:44:28;93537.22;;;15.00;100.00
52735;BME280;38631;47.572;10.704;2023-09-30T08:46:55;93543.06;;;15.50;100.00
52735;BME280;38631;47.572;10.704;2023-09-30T08:49:22;93527.28;;;16.15;98.29
52735;BME280;38631;47.572;10.704;2023-09-30T08:51:50;93544.63;;;16.61;96.26
52735;BME280;38631;47.572;10.704;2023-09-30T08:54:16;93544.94;;;16.68;93.49
52735;BME280;38631;47.572;10.704;2023-09-30T08:56:47;93530.66;;;17.11;93.50
52735;BME280;38631;47.572;10.704;2023-09-30T08:59:14;93536.53;;;15.74;97.15
52735;BME280;38631;47.572;10.704;2023-09-30T09:01:40;93545.84;;;15.37;99.58
52735;BME280;38631;47.572;10.704;2023-09-30T09:04:06;93542.44;;;15.13;99.93
52735;BME280;38631;47.572;10.704;2023-09-30T09:06:35;93550.78;;;15.12;100.00
52735;BME280;38631;47.572;10.704;2023-09-30T09:09:19;93551.88;;;15.11;100.00
52735;BME280;38631;47.572;10.704;2023-09-30T09:11:47;93556.19;;;15.21;100.00
52735;BME280;38631;47.572;10.704;2023-09-30T09:14:14;93542.97;;;15.24;100.00
52735;BME280;38631;47.572;10.704;2023-09-30T09:16:53;93555.06;;;15.22;99.63
52735;BME280;38631;47.572;10.704;2023-09-30T09:19:20;93558.41;;;15.27;99.68
52735;BME280;38631;47.572;10.704;2023-09-30T09:21:54;93549.22;;;15.20;99.79
52735;BME280;38631;47.572;10.704;2023-09-30T09:24:31;93537.25;;;15.17;99.83
52735;BME280;38631;47.572;10.704;2023-09-30T09:27:10;93537.47;;;15.29;100.00
52735;BME280;38631;47.572;10.704;2023-09-30T09:29:44;93540.16;;;15.29;98.32
52735;BME280;38631;47.572;10.704;2023-09-30T09:32:30;93530.91;;;15.36;97.45
52735;BME280;38631;47.572;10.704;2023-09-30T09:35:01;93522.25;;;15.39;96.67
52735;BME280;38631;47.572;10.704;2023-09-30T09:37:31;93528.34;;;15.30;96.17
52735;BME280;38631;47.572;10.704;2023-09-30T09:39:57;93530.38;;;15.25;96.11
52735;BME280;38631;47.572;10.704;2023-09-30T09:42:30;93530.13;;;15.44;97.28
52735;BME280;38631;47.572;10.704;2023-09-30T09:44:59;93517.84;;;15.43;96.31
52735;BME280;38631;47.572;10.704;2023-09-30T09:47:25;93512.03;;;15.49;94.81
52735;BME280;38631;47.572;10.704;2023-09-30T09:49:53;93507.59;;;15.45;95.51
52735;BME280;38631;47.572;10.704;2023-09-30T09:52:22;93501.78;;;15.43;95.45
52735;BME280;38631;47.572;10.704;2023-09-30T09:54:51;93506.53;;;15.46;95.41
52735;BME280;38631;47.572;10.704;2023-09-30T09:57:19;93486.19;;;15.36;94.40
52735;BME280;38631;47.572;10.704;2023-09-30T09:59:47;93495.31;;;15.35;94.58
52735;BME280;38631;47.572;10.704;2023-09-30T10:02:14;93481.59;;;15.37;95.87
52735;BME280;38631;47.572;10.704;2023-09-30T10:04:46;93479.91;;;15.49;96.66
52735;BME280;38631;47.572;10.704;2023-09-30T10:07:25;93486.72;;;15.64;96.30
52735;BME280;38631;47.572;10.704;2023-09-30T10:09:53;93486.69;;;15.55;94.43
52735;BME280;38631;47.572;10.704;2023-09-30T10:12:21;93482.28;;;15.60;94.95
52735;BME280;38631;47.572;10.704;2023-09-30T10:14:47;93491.75;;;15.66;95.15
52735;BME280;38631;47.572;10.704;2023-09-30T10:17:13;93484.03;;;15.55;93.96
52735;BME280;38631;47.572;10.704;2023-09-30T10:20:03;93493.31;;;15.67;93.45
52735;BME280;38631;47.572;10.704;2023-09-30T10:22:29;93487.25;;;15.84;94.51
52735;BME280;38631;47.572;10.704;2023-09-30T10:24:58;93493.38;;;15.84;93.44
52735;BME280;38631;47.572;10.704;2023-09-30T10:30:05;93483.44;;;15.76;93.95
52735;BME280;38631;47.572;10.704;2023-09-30T10:35:44;93481.09;;;15.83;91.45
52735;BME280;38631;47.572;10.704;2023-09-30T10:40:53;93483.16;;;16.04;91.46
52735;BME280;38631;47.572;10.704;2023-09-30T10:43:36;93480.19;;;16.05;93.05
52735;BME280;38631;47.572;10.704;2023-09-30T10:46:04;93489.75;;;16.15;93.32
52735;BME280;38631;47.572;10.704;2023-09-30T10:48:42;93494.81;;;16.16;91.84
52735;BME280;38631;47.572;10.704;2023-09-30T10:51:14;93509.66;;;16.23;91.71
52735;BME280;38631;47.572;10.704;2023-09-30T10:53:45;93498.47;;;16.20;90.46
52735;BME280;38631;47.572;10.704;2023-09-30T10:56:11;93496.38;;;16.17;90.46
52735;BME280;38631;47.572;10.704;2023-09-30T10:58:50;93489.31;;;16.22;88.67
52735;BME280;38631;47.572;10.704;2023-09-30T11:01:21;93477.34;;;16.28;88.98
52735;BME280;38631;47.572;10.704;2023-09-30T11:03:48;93485.31;;;16.54;90.00
52735;BME280;38631;47.572;10.704;2023-09-30T11:06:19;93483.16;;;16.38;85.57
52735;BME280;38631;47.572;10.704;2023-09-30T11:08:56;93478.13;;;16.11;86.29
52735;BME280;38631;47.572;10.704;2023-09-30T11:11:40;93482.03;;;16.22;86.88
52735;BME280;38631;47.572;10.704;2023-09-30T11:14:29;93477.00;;;16.38;88.21
52735;BME280;38631;47.572;10.704;2023-09-30T11:17:01;93479.03;;;16.41;88.98
52735;BME280;38631;47.572;10.704;2023-09-30T11:19:37;93481.88;;;16.36;88.32
52735;BME280;38631;47.572;10.704;2023-09-30T11:22:10;93484.56;;;16.36;87.80
52735;BME280;38631;47.572;10.704;2023-09-30T11:24:37;93484.25;;;16.29;85.74
52735;BME280;38631;47.572;10.704;2023-09-30T11:27:02;93476.53;;;16.27;86.20
52735;BME280;38631;47.572;10.704;2023-09-30T11:29:28;93478.41;;;16.53;89.64
52735;BME280;38631;47.572;10.704;2023-09-30T11:31:55;93466.72;;;16.49;88.39
52735;BME280;38631;47.572;10.704;2023-09-30T11:34:34;93467.84;;;16.48;88.93
52735;BME280;38631;47.572;10.704;2023-09-30T11:37:03;93475.25;;;16.33;86.45
52735;BME280;38631;47.572;10.704;2023-09-30T11:39:32;93462.63;;;16.42;88.16
52735;BME280;38631;47.572;10.704;2023-09-30T11:41:58;93468.94;;;16.55;86.98
52735;BME280;38631;47.572;10.704;2023-09-30T11:44:25;93458.06;;;16.34;86.74
52735;BME280;38631;47.572;10.704;2023-09-30T11:47:00;93464.66;;;16.54;86.48
52735;BME280;38631;47.572;10.704;2023-09-30T11:49:36;93462.94;;;16.58;86.48
52735;BME280;38631;47.572;10.704;2023-09-30T11:52:07;93464.97;;;16.61;87.62
52735;BME280;38631;47.572;10.704;2023-09-30T11:54:37;93455.00;;;16.62;86.07
52735;BME280;38631;47.572;10.704;2023-09-30T11:57:07;93449.81;;;16.66;86.64
52735;BME280;38631;47.572;10.704;2023-09-30T11:59:35;93457.81;;;16.74;86.25
52735;BME280;38631;47.572;10.704;2023-09-30T12:02:01;93443.94;;;16.72;84.07
52735;BME280;38631;47.572;10.704;2023-09-30T12:04:26;93459.72;;;16.74;84.91
52735;BME280;38631;47.572;10.704;2023-09-30T12:06:53;93449.66;;;16.71;85.26
52735;BME280;38631;47.572;10.704;2023-09-30T12:09:18;93449.97;;;16.78;85.87
52735;BME280;38631;47.572;10.704;2023-09-30T12:11:51;93448.81;;;16.88;85.73
52735;BME280;38631;47.572;10.704;2023-09-30T12:14:17;93439.06;;;16.83;85.85
52735;BME280;38631;47.572;10.704;2023-09-30T12:16:43;93435.25;;;16.84;84.95
52735;BME280;38631;47.572;10.704;2023-09-30T12:19:16;93437.28;;;16.87;86.13
52735;BME280;38631;47.572;10.704;2023-09-30T12:21:42;93424.56;;;16.67;85.23
52735;BME280;38631;47.572;10.704;2023-09-30T12:24:08;93421.09;;;16.66;86.59
52735;BME280;38631;47.572;10.704;2023-09-30T12:26:35;93429.56;;;16.77;87.49
52735;BME280;38631;47.572;10.704;2023-09-30T12:29:06;93417.47;;;16.71;85.91
52735;BME280;38631;47.572;10.704;2023-09-30T12:31:34;93406.91;;;16.66;85.53
52735;BME280;38631;47.572;10.704;2023-09-30T12:33:59;93411.03;;;16.63;87.18
52735;BME280;38631;47.572;10.704;2023-09-30T12:36:25;93406.00;;;16.53;84.79
52735;BME280;38631;47.572;10.704;2023-09-30T12:38:50;93399.88;;;16.35;85.05
52735;BME280;38631;47.572;10.704;2023-09-30T12:41:16;93406.50;;;16.37;86.47
52735;BME280;38631;47.572;10.704;2023-09-30T12:43:44;93408.22;;;16.42;86.57
52735;BME280;38631;47.572;10.704;2023-09-30T12:46:10;93409.94;;;16.47;87.04
52735;BME280;38631;47.572;10.704;2023-09-30T12:48:38;93406.13;;;16.56;87.66
52735;BME280;38631;47.572;10.704;2023-09-30T12:51:03;93405.31;;;16.64;87.31
52735;BME280;38631;47.572;10.704;2023-09-30T12:53:31;93399.94;;;16.64;87.96
52735;BME280;38631;47.572;10.704;2023-09-30T12:55:57;93400.59;;;16.61;86.68